createdAt,value
2019-05-21T00:02:10.708Z,95.90
2019-05-21T00:04:40.083Z,95.70
2019-05-21T00:07:09.124Z,96.00
2019-05-21T00:09:37.914Z,95.70
2019-05-21T00:12:06.721Z,96.00
2019-05-21T00:14:35.635Z,95.90
2019-05-21T00:17:04.748Z,95.80
2019-05-21T00:19:34.022Z,96.00
2019-05-21T00:22:02.840Z,95.90
2019-05-21T00:24:31.709Z,95.90
2019-05-21T00:27:01.812Z,95.80
2019-05-21T00:30:07.428Z,95.80
2019-05-21T00:33:12.266Z,95.90
2019-05-21T00:36:18.367Z,96.00
2019-05-21T00:39:23.423Z,96.00
2019-05-21T00:42:01.031Z,95.90
2019-05-21T00:44:32.147Z,95.90
2019-05-21T00:47:01.289Z,95.90
2019-05-21T00:49:30.651Z,95.90
2019-05-21T00:52:08.002Z,95.90
2019-05-21T00:54:30.818Z,95.90
2019-05-21T00:56:59.670Z,96.00
2019-05-21T00:59:28.978Z,96.00
2019-05-21T01:01:58.157Z,96.00
2019-05-21T01:04:27.080Z,95.90
2019-05-21T01:06:56.189Z,96.00
2019-05-21T01:09:25.027Z,96.00
2019-05-21T01:11:53.807Z,96.00
2019-05-21T01:14:22.614Z,96.00
2019-05-21T01:16:51.510Z,96.10
2019-05-21T01:19:20.595Z,96.10
2019-05-21T01:21:49.795Z,96.10
2019-05-21T01:24:18.690Z,96.10
2019-05-21T01:26:47.484Z,96.10
2019-05-21T01:29:16.333Z,96.10
2019-05-21T01:31:45.454Z,96.10
2019-05-21T01:34:14.366Z,96.20
2019-05-21T01:36:43.422Z,96.10
2019-05-21T01:39:12.333Z,96.10
2019-05-21T01:41:41.117Z,96.10
2019-05-21T01:44:09.967Z,96.10
2019-05-21T01:46:41.015Z,96.00
2019-05-21T01:49:09.943Z,96.20
2019-05-21T01:51:38.794Z,96.10
2019-05-21T01:54:08.166Z,96.20
2019-05-21T01:56:37.194Z,96.10
2019-05-21T01:59:06.074Z,96.10
2019-05-21T02:01:35.861Z,96.10
2019-05-21T02:04:04.775Z,96.10
2019-05-21T02:06:33.933Z,96.10
2019-05-21T02:09:02.982Z,96.10
2019-05-21T02:11:31.838Z,96.10
2019-05-21T02:14:00.632Z,96.10
2019-05-21T02:16:29.449Z,96.20
2019-05-21T02:18:58.457Z,96.20
2019-05-21T02:21:27.270Z,96.40
2019-05-21T02:23:56.346Z,96.20
2019-05-21T02:26:25.380Z,96.20
2019-05-21T02:28:54.393Z,96.30
2019-05-21T02:31:23.749Z,96.20
2019-05-21T02:33:52.706Z,96.20
2019-05-21T02:36:22.203Z,96.20
2019-05-21T02:38:51.407Z,96.20
2019-05-21T02:41:20.270Z,96.20
2019-05-21T02:43:49.071Z,96.30
2019-05-21T02:46:18.169Z,96.30
2019-05-21T02:48:47.183Z,96.20
2019-05-21T02:51:15.961Z,96.20
2019-05-21T02:53:44.960Z,96.40
2019-05-21T02:56:14.177Z,96.40
2019-05-21T02:58:43.005Z,96.70
2019-05-21T03:01:37.133Z,96.40
2019-05-21T03:04:06.201Z,96.40
2019-05-21T03:06:35.399Z,96.40
2019-05-21T03:09:05.666Z,96.40
2019-05-21T03:11:34.635Z,96.40
2019-05-21T03:14:03.539Z,96.40
2019-05-21T03:16:32.413Z,96.30
2019-05-21T03:19:01.416Z,96.40
2019-05-21T03:21:30.461Z,96.40
2019-05-21T03:23:59.258Z,96.40
2019-05-21T03:26:28.143Z,96.40
2019-05-21T03:28:57.263Z,96.40
2019-05-21T03:31:26.136Z,96.40
2019-05-21T03:33:55.519Z,96.40
2019-05-21T03:36:33.334Z,96.40
2019-05-21T03:38:55.165Z,96.40
2019-05-21T03:41:24.026Z,96.50
2019-05-21T03:43:52.914Z,96.50
2019-05-21T03:46:21.746Z,96.80
2019-05-21T03:48:50.543Z,96.50
2019-05-21T03:51:19.557Z,96.50
2019-05-21T03:53:48.818Z,96.60
2019-05-21T03:56:17.784Z,96.70
2019-05-21T03:58:46.652Z,96.50
2019-05-21T04:01:15.650Z,96.60
2019-05-21T04:03:44.779Z,96.60
2019-05-21T04:06:13.579Z,96.60
2019-05-21T04:08:42.393Z,96.60
2019-05-21T04:11:11.307Z,96.60
2019-05-21T04:13:40.087Z,96.60
2019-05-21T04:16:37.240Z,96.70
2019-05-21T04:19:10.074Z,96.60
2019-05-21T04:21:38.883Z,96.70
2019-05-21T04:24:08.976Z,96.70
2019-05-21T04:26:38.216Z,96.70
2019-05-21T04:29:07.339Z,96.70
2019-05-21T04:31:36.219Z,96.70
2019-05-21T04:34:05.106Z,96.70
2019-05-21T04:36:33.986Z,96.70
2019-05-21T04:39:04.093Z,96.70
2019-05-21T04:41:33.187Z,96.80
2019-05-21T04:44:04.291Z,96.90
2019-05-21T04:46:33.322Z,96.80
2019-05-21T04:49:02.607Z,96.90
2019-05-21T04:51:31.474Z,96.80
2019-05-21T04:54:00.363Z,96.90
2019-05-21T04:56:29.141Z,96.90
2019-05-21T04:58:57.993Z,97.00
2019-05-21T05:01:28.867Z,96.90
2019-05-21T05:03:58.041Z,97.10
2019-05-21T05:06:27.018Z,97.00
2019-05-21T05:08:56.119Z,97.10
2019-05-21T05:11:25.225Z,97.10
2019-05-21T05:13:54.218Z,97.10
2019-05-21T05:16:23.037Z,97.10
2019-05-21T05:18:51.838Z,97.10
2019-05-21T05:21:20.720Z,97.20
2019-05-21T05:23:49.618Z,97.20
2019-05-21T05:26:19.149Z,97.10
2019-05-21T05:28:48.309Z,97.30
2019-05-21T05:31:17.222Z,97.30
2019-05-21T05:33:46.357Z,97.20
2019-05-21T05:36:15.716Z,97.20
2019-05-21T05:38:44.810Z,97.30
2019-05-21T05:41:13.699Z,97.40
2019-05-21T05:43:42.812Z,97.40
2019-05-21T05:46:11.637Z,97.30
2019-05-21T05:48:47.974Z,97.40
2019-05-21T05:51:16.987Z,97.40
2019-05-21T05:53:58.592Z,97.40
2019-05-21T05:56:30.506Z,97.40
2019-05-21T05:58:59.442Z,97.40
2019-05-21T06:01:30.374Z,97.70
2019-05-21T06:03:59.167Z,97.60
2019-05-21T06:06:28.381Z,97.60
2019-05-21T06:08:57.507Z,97.50
2019-05-21T06:11:26.512Z,97.70
2019-05-21T06:13:55.513Z,97.70
2019-05-21T06:16:24.739Z,97.70
2019-05-21T06:18:53.685Z,97.50
2019-05-21T06:21:22.547Z,97.70
2019-05-21T06:23:51.411Z,97.70
2019-05-21T06:26:20.568Z,97.90
2019-05-21T06:28:49.425Z,98.30
2019-05-21T06:31:18.623Z,97.80
2019-05-21T06:33:47.703Z,97.80
2019-05-21T06:36:16.601Z,97.80
2019-05-21T06:38:45.611Z,97.80
2019-05-21T06:41:15.074Z,97.90
2019-05-21T06:43:44.591Z,97.80
2019-05-21T06:46:13.747Z,97.90
2019-05-21T06:48:43.005Z,97.80
2019-05-21T06:51:11.865Z,97.80
2019-05-21T06:53:40.917Z,97.80
2019-05-21T06:56:09.829Z,97.80
2019-05-21T06:58:38.636Z,98.00
2019-05-21T07:01:07.841Z,97.90
2019-05-21T07:03:36.641Z,98.00
2019-05-21T07:06:05.507Z,98.00
2019-05-21T07:08:35.326Z,97.90
2019-05-21T07:11:04.886Z,98.00
2019-05-21T07:13:34.181Z,98.00
2019-05-21T07:16:03.363Z,98.00
2019-05-21T07:18:32.865Z,98.00
2019-05-21T07:21:01.727Z,98.10
2019-05-21T07:23:30.967Z,98.20
2019-05-21T07:25:59.832Z,98.10
2019-05-21T07:28:29.338Z,98.20
2019-05-21T07:30:59.154Z,98.20
2019-05-21T07:33:28.385Z,98.30
2019-05-21T07:35:57.217Z,98.20
2019-05-21T07:38:26.239Z,98.20
2019-05-21T07:40:55.230Z,98.20
2019-05-21T07:43:24.386Z,98.20
2019-05-21T07:45:53.438Z,98.10
2019-05-21T07:48:22.278Z,98.20
2019-05-21T07:50:51.494Z,98.20
2019-05-21T07:53:20.533Z,98.20
2019-05-21T07:55:49.518Z,98.40
2019-05-21T07:58:18.661Z,98.50
2019-05-21T08:00:47.651Z,98.40
2019-05-21T08:03:16.442Z,98.40
2019-05-21T08:05:45.453Z,98.30
2019-05-21T08:08:14.323Z,98.50
2019-05-21T08:10:43.298Z,98.40
2019-05-21T08:13:12.474Z,98.40
2019-05-21T08:15:41.358Z,98.40
2019-05-21T08:18:10.265Z,98.40
2019-05-21T08:20:39.225Z,98.30
2019-05-21T08:23:08.476Z,98.20
2019-05-21T08:25:37.363Z,98.30
2019-05-21T08:28:06.258Z,98.50
2019-05-21T08:30:35.071Z,98.40
2019-05-21T08:33:03.950Z,98.30
2019-05-21T08:35:33.095Z,98.30
2019-05-21T08:38:06.046Z,98.30
2019-05-21T08:40:33.316Z,98.30
2019-05-21T08:43:02.449Z,98.20
2019-05-21T08:45:31.286Z,98.20
2019-05-21T08:48:00.443Z,98.30
2019-05-21T08:50:29.263Z,98.60
2019-05-21T08:52:58.118Z,98.60
2019-05-21T08:55:27.088Z,98.30
2019-05-21T08:58:06.398Z,98.30
2019-05-21T09:00:27.805Z,98.30
2019-05-21T09:02:56.819Z,98.30
2019-05-21T09:05:25.791Z,98.20
2019-05-21T09:07:54.589Z,98.20
2019-05-21T09:10:23.791Z,98.20
2019-05-21T09:12:52.584Z,98.20
2019-05-21T09:15:21.815Z,98.30
2019-05-21T09:17:50.700Z,98.30
2019-05-21T09:20:20.271Z,98.30
2019-05-21T09:22:49.122Z,98.20
2019-05-21T09:25:18.303Z,98.20
2019-05-21T09:27:47.506Z,98.20
2019-05-21T09:30:17.530Z,98.40
2019-05-21T09:32:46.574Z,98.10
2019-05-21T09:35:15.451Z,98.30
2019-05-21T09:37:44.358Z,98.10
2019-05-21T09:40:15.397Z,98.20
2019-05-21T09:42:46.058Z,98.20
2019-05-21T09:45:15.687Z,98.20
2019-05-21T09:47:44.526Z,98.20
2019-05-21T09:50:13.830Z,98.20
2019-05-21T09:52:42.731Z,98.20
2019-05-21T09:55:12.589Z,98.20
2019-05-21T09:57:48.430Z,98.20
2019-05-21T10:00:36.105Z,98.10
2019-05-21T10:03:07.605Z,98.30
2019-05-21T10:05:36.505Z,98.20
2019-05-21T10:08:06.362Z,98.30
2019-05-21T10:10:35.519Z,98.30
2019-05-21T10:13:04.413Z,98.30
2019-05-21T10:15:33.327Z,98.30
2019-05-21T10:18:02.129Z,98.30
2019-05-21T10:20:31.455Z,98.30
2019-05-21T10:23:00.379Z,98.20
2019-05-21T10:25:29.589Z,98.30
2019-05-21T10:27:58.647Z,98.30
2019-05-21T10:30:27.998Z,98.20
2019-05-21T10:32:57.051Z,98.30
2019-05-21T10:35:25.886Z,98.30
2019-05-21T10:37:55.569Z,98.20
2019-05-21T10:40:24.763Z,98.20
2019-05-21T10:42:53.712Z,98.20
2019-05-21T10:45:23.004Z,98.30
2019-05-21T10:47:52.104Z,98.20
2019-05-21T10:50:21.251Z,98.20
2019-05-21T10:52:50.303Z,98.30
2019-05-21T10:55:19.234Z,98.30
2019-05-21T10:57:48.114Z,98.40
2019-05-21T11:00:23.105Z,98.30
2019-05-21T11:02:58.543Z,98.30
2019-05-21T11:05:39.234Z,98.40
2019-05-21T11:08:25.210Z,98.40
2019-05-21T11:10:39.301Z,98.30
2019-05-21T11:13:08.383Z,98.40
2019-05-21T11:15:37.413Z,98.40
2019-05-21T11:18:11.447Z,98.50
2019-05-21T11:20:37.111Z,98.40
2019-05-21T11:23:05.897Z,98.40
2019-05-21T11:25:34.849Z,98.50
2019-05-21T11:28:06.066Z,98.50
2019-05-21T11:30:34.399Z,98.40
2019-05-21T11:33:04.569Z,98.50
2019-05-21T11:35:36.002Z,98.50
2019-05-21T11:38:05.939Z,98.50
2019-05-21T11:40:35.109Z,98.50
2019-05-21T11:43:03.974Z,98.50
2019-05-21T11:45:33.350Z,98.60
2019-05-21T11:48:02.281Z,98.50
2019-05-21T11:50:31.139Z,98.60
2019-05-21T11:52:59.906Z,98.70
2019-05-21T11:55:28.860Z,98.50
2019-05-21T11:57:57.726Z,98.60
2019-05-21T12:00:28.898Z,98.50
2019-05-21T12:02:58.001Z,98.50
2019-05-21T12:05:27.143Z,98.90
2019-05-21T12:07:56.517Z,98.60
2019-05-21T12:10:25.650Z,98.60
2019-05-21T12:12:54.508Z,98.60
2019-05-21T12:15:23.497Z,98.60
2019-05-21T12:17:52.546Z,98.60
2019-05-21T12:20:35.856Z,98.60
2019-05-21T12:22:52.634Z,98.60
2019-05-21T12:25:21.826Z,98.60
2019-05-21T12:27:50.618Z,98.60
2019-05-21T12:30:20.181Z,98.70
2019-05-21T12:32:49.040Z,98.70
2019-05-21T12:35:18.260Z,98.70
2019-05-21T12:37:47.082Z,98.80
2019-05-21T12:40:16.601Z,98.70
2019-05-21T12:42:45.895Z,98.60
2019-05-21T12:45:15.109Z,98.70
2019-05-21T12:47:43.962Z,98.60
2019-05-21T12:50:13.250Z,98.60
2019-05-21T12:52:42.156Z,98.60
2019-05-21T12:55:11.615Z,98.60
2019-05-21T12:57:41.221Z,98.70
2019-05-21T13:00:13.044Z,98.70
2019-05-21T13:02:42.017Z,98.70
2019-05-21T13:05:11.764Z,98.70
2019-05-21T13:07:41.110Z,98.70
2019-05-21T13:10:10.497Z,98.70
2019-05-21T13:12:39.476Z,99.00
2019-05-21T13:15:08.726Z,98.70
2019-05-21T13:17:37.567Z,98.70
2019-05-21T13:20:07.424Z,98.70
2019-05-21T13:22:36.907Z,98.70
2019-05-21T13:25:06.426Z,98.80
2019-05-21T13:27:35.621Z,98.70
2019-05-21T13:30:06.611Z,98.90
2019-05-21T13:32:36.033Z,98.80
2019-05-21T13:35:05.741Z,98.80
2019-05-21T13:37:35.260Z,98.80
2019-05-21T13:40:05.179Z,98.80
2019-05-21T13:42:34.435Z,98.90
2019-05-21T13:45:03.406Z,98.90
2019-05-21T13:47:32.224Z,98.90
2019-05-21T13:50:01.680Z,98.80
2019-05-21T13:52:30.763Z,98.90
2019-05-21T13:54:59.876Z,98.80
2019-05-21T13:57:28.916Z,98.70
2019-05-21T13:59:57.794Z,98.90
2019-05-21T14:02:27.510Z,98.80
2019-05-21T14:04:56.567Z,98.70
2019-05-21T14:07:25.507Z,98.80
2019-05-21T14:10:13.388Z,98.80
2019-05-21T14:12:25.975Z,98.80
2019-05-21T14:14:55.031Z,98.80
2019-05-21T14:17:24.172Z,98.80
2019-05-21T14:19:53.065Z,98.70
2019-05-21T14:22:22.179Z,98.80
2019-05-21T14:24:51.795Z,98.70
2019-05-21T14:27:21.122Z,98.80
2019-05-21T14:29:49.892Z,98.90
2019-05-21T14:32:19.042Z,98.80
2019-05-21T14:35:00.815Z,98.80
2019-05-21T14:37:18.943Z,98.80
2019-05-21T14:39:48.173Z,98.90
2019-05-21T14:42:17.099Z,98.90
2019-05-21T14:44:46.223Z,98.90
2019-05-21T14:47:15.352Z,98.90
2019-05-21T14:49:44.402Z,98.80
2019-05-21T14:52:13.984Z,98.90
2019-05-21T14:54:43.018Z,98.90
2019-05-21T14:57:12.239Z,98.80
2019-05-21T14:59:41.443Z,98.80
2019-05-21T15:02:10.746Z,98.90
2019-05-21T15:04:40.354Z,98.90
2019-05-21T15:07:09.480Z,98.90
2019-05-21T15:09:39.111Z,98.90
2019-05-21T15:12:08.275Z,98.90
2019-05-21T15:14:37.262Z,98.80
2019-05-21T15:17:06.442Z,98.90
2019-05-21T15:19:35.536Z,98.80
2019-05-21T15:22:04.621Z,98.90
2019-05-21T15:24:33.805Z,98.90
2019-05-21T15:27:02.686Z,99.00
2019-05-21T15:29:31.595Z,98.90
2019-05-21T15:32:00.463Z,98.90
2019-05-21T15:34:29.364Z,98.90
2019-05-21T15:36:58.408Z,98.90
2019-05-21T15:39:27.644Z,99.00
2019-05-21T15:41:56.782Z,98.90
2019-05-21T15:44:25.600Z,99.00
2019-05-21T15:46:54.538Z,99.00
2019-05-21T15:49:35.701Z,99.00
2019-05-21T15:51:54.255Z,99.00
2019-05-21T15:54:23.305Z,98.90
2019-05-21T15:56:52.463Z,99.00
2019-05-21T15:59:21.541Z,99.00
2019-05-21T16:01:51.021Z,98.90
2019-05-21T16:04:20.292Z,99.00
2019-05-21T16:06:49.391Z,99.00
2019-05-21T16:09:18.211Z,99.00
2019-05-21T16:11:47.302Z,99.00
2019-05-21T16:14:16.211Z,99.00
2019-05-21T16:16:45.334Z,99.00
2019-05-21T16:19:14.175Z,99.00
2019-05-21T16:21:43.070Z,99.00
2019-05-21T16:24:12.523Z,99.00
2019-05-21T16:26:41.307Z,99.00
2019-05-21T16:29:10.119Z,99.00
2019-05-21T16:31:38.988Z,99.00
2019-05-21T16:34:08.169Z,99.00
2019-05-21T16:36:37.379Z,99.00
2019-05-21T16:39:07.488Z,99.00
2019-05-21T16:41:44.784Z,99.00
2019-05-21T16:44:07.739Z,99.00
2019-05-21T16:46:36.517Z,99.00
2019-05-21T16:49:05.559Z,99.00
2019-05-21T16:51:34.602Z,99.10
2019-05-21T16:54:03.547Z,99.10
2019-05-21T16:56:32.642Z,99.10
2019-05-21T16:59:01.799Z,99.10
2019-05-21T17:01:31.867Z,99.00
2019-05-21T17:04:01.020Z,99.00
2019-05-21T17:06:29.893Z,99.10
2019-05-21T17:08:59.016Z,99.10
2019-05-21T17:11:27.814Z,99.00
2019-05-21T17:13:56.633Z,99.10
2019-05-21T17:16:25.773Z,98.80
2019-05-21T17:18:54.543Z,99.10
2019-05-21T17:21:23.459Z,99.10
2019-05-21T17:23:52.582Z,99.10
2019-05-21T17:26:21.851Z,99.10
2019-05-21T17:28:50.945Z,99.30
2019-05-21T17:31:19.845Z,99.10
2019-05-21T17:33:48.982Z,99.10
2019-05-21T17:36:18.171Z,99.10
2019-05-21T17:38:47.279Z,99.10
2019-05-21T17:41:16.366Z,99.10
2019-05-21T17:43:45.245Z,99.10
2019-05-21T17:46:14.256Z,99.10
2019-05-21T17:48:43.446Z,99.20
2019-05-21T17:51:12.707Z,99.20
2019-05-21T17:53:42.921Z,99.20
2019-05-21T17:56:12.481Z,99.40
2019-05-21T17:58:41.477Z,99.10
2019-05-21T18:01:11.460Z,99.20
2019-05-21T18:03:41.170Z,99.20
2019-05-21T18:06:10.635Z,99.20
2019-05-21T18:08:40.471Z,99.20
2019-05-21T18:11:09.533Z,99.20
2019-05-21T18:13:38.938Z,99.20
2019-05-21T18:16:08.822Z,99.20
2019-05-21T18:18:38.138Z,99.20
2019-05-21T18:21:08.169Z,99.20
2019-05-21T18:23:37.029Z,99.30
2019-05-21T18:26:06.286Z,99.20
2019-05-21T18:28:35.759Z,99.20
2019-05-21T18:31:05.211Z,99.30
2019-05-21T18:33:34.174Z,99.60
2019-05-21T18:36:03.376Z,99.40
2019-05-21T18:38:32.906Z,99.20
2019-05-21T18:41:02.784Z,99.30
2019-05-21T18:43:31.735Z,99.20
2019-05-21T18:46:00.621Z,99.30
2019-05-21T18:48:29.610Z,99.30
2019-05-21T18:50:58.739Z,99.40
2019-05-21T18:53:28.339Z,99.30
2019-05-21T18:55:57.341Z,99.30
2019-05-21T18:58:26.306Z,99.30
2019-05-21T19:00:55.802Z,99.30
2019-05-21T19:03:25.763Z,99.40
2019-05-21T19:05:54.988Z,99.30
2019-05-21T19:08:24.082Z,99.30
2019-05-21T19:10:53.252Z,99.30
2019-05-21T19:13:22.531Z,99.30
2019-05-21T19:15:51.428Z,99.30
2019-05-21T19:18:20.383Z,99.60
2019-05-21T19:20:50.192Z,99.30
2019-05-21T19:23:19.973Z,99.40
2019-05-21T19:25:49.010Z,99.40
2019-05-21T19:28:17.817Z,99.40
2019-05-21T19:30:46.795Z,99.40
2019-05-21T19:33:15.698Z,99.40
2019-05-21T19:35:44.745Z,99.40
2019-05-21T19:38:13.798Z,99.40
2019-05-21T19:40:43.293Z,99.40
2019-05-21T19:43:12.344Z,99.40
2019-05-21T19:45:41.382Z,99.40
2019-05-21T19:48:10.455Z,99.40
2019-05-21T19:50:39.326Z,99.40
2019-05-21T19:53:09.050Z,99.60
2019-05-21T19:55:38.478Z,99.40
2019-05-21T19:58:07.422Z,99.50
2019-05-21T20:00:40.390Z,99.40
2019-05-21T20:03:10.042Z,99.40
2019-05-21T20:05:39.533Z,99.40
2019-05-21T20:08:08.407Z,99.40
2019-05-21T20:10:37.919Z,99.50
2019-05-21T20:13:07.797Z,99.40
2019-05-21T20:15:36.755Z,99.40
2019-05-21T20:18:07.659Z,99.40
2019-05-21T20:20:37.424Z,99.40
2019-05-21T20:23:08.581Z,99.50
2019-05-21T20:25:37.698Z,99.50
2019-05-21T20:28:10.650Z,99.70
2019-05-21T20:30:38.933Z,99.40
2019-05-21T20:33:09.522Z,99.40
2019-05-21T20:35:39.097Z,99.50
2019-05-21T20:38:10.317Z,99.50
2019-05-21T20:40:39.383Z,99.50
2019-05-21T20:43:08.934Z,99.50
2019-05-21T20:45:42.274Z,99.50
2019-05-21T20:48:12.807Z,99.50
2019-05-21T20:50:41.700Z,99.60
2019-05-21T20:53:10.970Z,99.30
2019-05-21T20:55:39.993Z,99.40
2019-05-21T20:58:09.712Z,99.40
2019-05-21T21:00:40.936Z,99.40
2019-05-21T21:03:11.675Z,99.50
2019-05-21T21:05:41.013Z,99.40
2019-05-21T21:08:12.647Z,99.40
2019-05-21T21:10:42.485Z,99.40
2019-05-21T21:13:13.707Z,99.40
2019-05-21T21:15:43.413Z,99.40
2019-05-21T21:18:12.851Z,99.40
2019-05-21T21:20:41.982Z,99.40
2019-05-21T21:23:10.971Z,99.40
2019-05-21T21:25:40.389Z,99.40
2019-05-21T21:28:09.683Z,99.50
2019-05-21T21:30:39.235Z,99.50
2019-05-21T21:33:08.762Z,99.50
2019-05-21T21:35:38.325Z,99.50
2019-05-21T21:38:08.873Z,99.50
2019-05-21T21:40:37.731Z,99.50
2019-05-21T21:43:08.067Z,99.50
2019-05-21T21:45:37.887Z,99.50
2019-05-21T21:48:07.655Z,99.50
2019-05-21T21:50:37.710Z,99.60
2019-05-21T21:53:06.776Z,99.50
2019-05-21T21:55:36.451Z,99.50
2019-05-21T21:58:05.722Z,99.50
2019-05-21T22:01:31.164Z,99.60
2019-05-21T22:04:03.123Z,99.60
2019-05-21T22:06:34.266Z,99.50
2019-05-21T22:09:04.972Z,99.60
2019-05-21T22:11:34.243Z,99.50
2019-05-21T22:14:04.421Z,99.50
2019-05-21T22:16:34.750Z,99.60
2019-05-21T22:19:03.977Z,99.50
2019-05-21T22:21:33.712Z,99.50
2019-05-21T22:24:03.323Z,99.50
2019-05-21T22:26:32.288Z,99.50
2019-05-21T22:29:01.221Z,99.60
2019-05-21T22:31:33.217Z,99.50
2019-05-21T22:34:02.674Z,99.60
2019-05-21T22:36:31.617Z,99.60
2019-05-21T22:39:00.769Z,99.60
2019-05-21T22:41:29.601Z,99.50
2019-05-21T22:43:58.382Z,99.60
2019-05-21T22:46:27.185Z,99.60
2019-05-21T22:48:56.127Z,99.60
2019-05-21T22:51:25.189Z,99.60
2019-05-21T22:53:54.056Z,99.60
2019-05-21T22:56:23.166Z,99.60
2019-05-21T22:58:52.278Z,99.60
2019-05-21T23:01:23.351Z,99.90
2019-05-21T23:03:52.229Z,99.60
2019-05-21T23:06:22.221Z,99.60
2019-05-21T23:08:51.135Z,99.60
2019-05-21T23:11:23.019Z,99.60
2019-05-21T23:13:51.099Z,99.60
2019-05-21T23:16:20.058Z,99.80
2019-05-21T23:18:49.266Z,99.70
2019-05-21T23:21:19.361Z,99.70
2019-05-21T23:23:49.844Z,99.70
2019-05-21T23:26:20.360Z,99.70
2019-05-21T23:28:49.315Z,99.70
2019-05-21T23:31:18.907Z,99.80
2019-05-21T23:33:49.819Z,99.70
2019-05-21T23:36:19.221Z,99.70
2019-05-21T23:38:48.931Z,99.90
2019-05-21T23:41:20.004Z,99.80
2019-05-21T23:43:50.142Z,99.80
2019-05-21T23:46:19.583Z,99.80
2019-05-21T23:48:48.718Z,99.90
2019-05-21T23:51:17.724Z,99.80
2019-05-21T23:53:47.057Z,99.80
2019-05-21T23:56:16.335Z,99.80
2019-05-21T23:58:47.945Z,99.80
